sensor_id;sensor_type;location;lat;lon;timestamp;P1;durP1;ratioP1;P2;durP2;ratioP2
74791;SDS011;63319;46.046;17.802;2023-04-24T00:00:46;5.70;;;3.00;;
74791;SDS011;63319;46.046;17.802;2023-04-24T00:03:49;7.03;;;4.20;;
74791;SDS011;63319;46.046;17.802;2023-04-24T00:06:52;6.97;;;3.88;;
74791;SDS011;63319;46.046;17.802;2023-04-24T00:09:59;7.07;;;3.80;;
74791;SDS011;63319;46.046;17.802;2023-04-24T00:13:02;7.60;;;4.27;;
74791;SDS011;63319;46.046;17.802;2023-04-24T00:16:05;8.15;;;4.43;;
74791;SDS011;63319;46.046;17.802;2023-04-24T00:19:08;8.20;;;3.85;;
74791;SDS011;63319;46.046;17.802;2023-04-24T00:22:12;8.35;;;4.53;;
74791;SDS011;63319;46.046;17.802;2023-04-24T00:25:15;7.60;;;4.32;;
74791;SDS011;63319;46.046;17.802;2023-04-24T00:28:19;8.60;;;4.83;;
74791;SDS011;63319;46.046;17.802;2023-04-24T00:31:22;7.88;;;4.22;;
74791;SDS011;63319;46.046;17.802;2023-04-24T00:34:25;8.93;;;5.22;;
74791;SDS011;63319;46.046;17.802;2023-04-24T00:37:28;9.10;;;5.03;;
74791;SDS011;63319;46.046;17.802;2023-04-24T00:40:31;8.90;;;5.05;;
74791;SDS011;63319;46.046;17.802;2023-04-24T00:43:34;8.83;;;4.73;;
74791;SDS011;63319;46.046;17.802;2023-04-24T00:46:37;9.70;;;5.25;;
74791;SDS011;63319;46.046;17.802;2023-04-24T00:49:40;8.52;;;4.68;;
74791;SDS011;63319;46.046;17.802;2023-04-24T00:52:43;9.15;;;4.50;;
74791;SDS011;63319;46.046;17.802;2023-04-24T00:55:55;8.00;;;4.53;;
74791;SDS011;63319;46.046;17.802;2023-04-24T00:58:58;9.17;;;4.43;;
74791;SDS011;63319;46.046;17.802;2023-04-24T01:02:02;8.70;;;4.63;;
74791;SDS011;63319;46.046;17.802;2023-04-24T01:05:09;8.27;;;5.07;;
74791;SDS011;63319;46.046;17.802;2023-04-24T01:08:14;9.57;;;4.93;;
74791;SDS011;63319;46.046;17.802;2023-04-24T01:11:17;10.73;;;5.15;;
74791;SDS011;63319;46.046;17.802;2023-04-24T01:14:20;9.03;;;4.43;;
74791;SDS011;63319;46.046;17.802;2023-04-24T01:17:24;8.55;;;4.80;;
74791;SDS011;63319;46.046;17.802;2023-04-24T01:20:28;8.75;;;4.90;;
74791;SDS011;63319;46.046;17.802;2023-04-24T01:23:36;9.82;;;4.85;;
74791;SDS011;63319;46.046;17.802;2023-04-24T01:26:39;10.85;;;5.40;;
74791;SDS011;63319;46.046;17.802;2023-04-24T01:29:42;11.70;;;5.03;;
74791;SDS011;63319;46.046;17.802;2023-04-24T01:32:45;11.05;;;5.68;;
74791;SDS011;63319;46.046;17.802;2023-04-24T01:35:48;10.07;;;5.93;;
74791;SDS011;63319;46.046;17.802;2023-04-24T01:38:52;9.55;;;5.70;;
74791;SDS011;63319;46.046;17.802;2023-04-24T01:41:55;9.60;;;5.30;;
74791;SDS011;63319;46.046;17.802;2023-04-24T01:44:59;10.73;;;5.80;;
74791;SDS011;63319;46.046;17.802;2023-04-24T01:48:05;12.55;;;5.80;;
74791;SDS011;63319;46.046;17.802;2023-04-24T01:51:08;10.27;;;5.60;;
74791;SDS011;63319;46.046;17.802;2023-04-24T01:54:12;10.90;;;5.82;;
74791;SDS011;63319;46.046;17.802;2023-04-24T01:57:15;10.68;;;5.13;;
74791;SDS011;63319;46.046;17.802;2023-04-24T02:00:18;11.37;;;5.10;;
74791;SDS011;63319;46.046;17.802;2023-04-24T02:03:21;11.02;;;5.22;;
74791;SDS011;63319;46.046;17.802;2023-04-24T02:06:24;11.55;;;5.88;;
74791;SDS011;63319;46.046;17.802;2023-04-24T02:09:28;9.57;;;4.88;;
74791;SDS011;63319;46.046;17.802;2023-04-24T02:12:30;10.32;;;4.90;;
74791;SDS011;63319;46.046;17.802;2023-04-24T02:15:33;9.17;;;4.67;;
74791;SDS011;63319;46.046;17.802;2023-04-24T02:18:38;10.73;;;5.50;;
74791;SDS011;63319;46.046;17.802;2023-04-24T02:21:41;9.68;;;5.57;;
74791;SDS011;63319;46.046;17.802;2023-04-24T02:24:43;10.00;;;5.75;;
74791;SDS011;63319;46.046;17.802;2023-04-24T02:27:50;11.40;;;5.32;;
74791;SDS011;63319;46.046;17.802;2023-04-24T02:30:53;9.90;;;5.43;;
74791;SDS011;63319;46.046;17.802;2023-04-24T02:33:57;11.98;;;5.25;;
74791;SDS011;63319;46.046;17.802;2023-04-24T02:36:59;10.20;;;5.80;;
74791;SDS011;63319;46.046;17.802;2023-04-24T02:40:02;10.43;;;6.25;;
74791;SDS011;63319;46.046;17.802;2023-04-24T02:43:07;11.07;;;5.60;;
74791;SDS011;63319;46.046;17.802;2023-04-24T02:46:10;11.23;;;5.47;;
74791;SDS011;63319;46.046;17.802;2023-04-24T02:49:13;10.35;;;5.97;;
74791;SDS011;63319;46.046;17.802;2023-04-24T02:52:16;11.55;;;6.10;;
74791;SDS011;63319;46.046;17.802;2023-04-24T02:55:19;11.00;;;5.50;;
74791;SDS011;63319;46.046;17.802;2023-04-24T02:58:22;13.20;;;6.97;;
74791;SDS011;63319;46.046;17.802;2023-04-24T03:01:25;10.33;;;5.40;;
74791;SDS011;63319;46.046;17.802;2023-04-24T03:04:28;11.55;;;6.30;;
74791;SDS011;63319;46.046;17.802;2023-04-24T03:07:31;12.50;;;6.75;;
74791;SDS011;63319;46.046;17.802;2023-04-24T03:10:34;10.65;;;6.47;;
74791;SDS011;63319;46.046;17.802;2023-04-24T03:13:37;10.65;;;6.28;;
74791;SDS011;63319;46.046;17.802;2023-04-24T03:16:40;11.03;;;6.07;;
74791;SDS011;63319;46.046;17.802;2023-04-24T03:19:42;11.93;;;6.10;;
74791;SDS011;63319;46.046;17.802;2023-04-24T03:22:47;11.25;;;6.18;;
74791;SDS011;63319;46.046;17.802;2023-04-24T03:25:51;10.50;;;5.75;;
74791;SDS011;63319;46.046;17.802;2023-04-24T03:28:55;10.25;;;5.93;;
74791;SDS011;63319;46.046;17.802;2023-04-24T03:31:58;11.67;;;6.27;;
74791;SDS011;63319;46.046;17.802;2023-04-24T03:35:02;10.77;;;6.13;;
74791;SDS011;63319;46.046;17.802;2023-04-24T03:38:06;10.65;;;5.45;;
74791;SDS011;63319;46.046;17.802;2023-04-24T03:41:29;10.82;;;5.85;;
74791;SDS011;63319;46.046;17.802;2023-04-24T03:44:48;10.30;;;5.20;;
74791;SDS011;63319;46.046;17.802;2023-04-24T03:47:54;9.37;;;5.50;;
74791;SDS011;63319;46.046;17.802;2023-04-24T03:50:57;10.45;;;5.72;;
74791;SDS011;63319;46.046;17.802;2023-04-24T03:54:00;10.27;;;5.25;;
74791;SDS011;63319;46.046;17.802;2023-04-24T03:57:05;10.43;;;5.70;;
74791;SDS011;63319;46.046;17.802;2023-04-24T04:00:11;10.80;;;5.63;;
74791;SDS011;63319;46.046;17.802;2023-04-24T04:03:21;9.50;;;4.97;;
74791;SDS011;63319;46.046;17.802;2023-04-24T04:06:25;11.10;;;5.82;;
74791;SDS011;63319;46.046;17.802;2023-04-24T04:12:51;9.20;;;5.55;;
74791;SDS011;63319;46.046;17.802;2023-04-24T04:15:54;9.30;;;5.13;;
74791;SDS011;63319;46.046;17.802;2023-04-24T04:18:57;10.33;;;5.30;;
74791;SDS011;63319;46.046;17.802;2023-04-24T04:22:02;9.82;;;5.30;;
74791;SDS011;63319;46.046;17.802;2023-04-24T04:25:14;9.80;;;5.35;;
74791;SDS011;63319;46.046;17.802;2023-04-24T04:28:17;9.68;;;5.53;;
74791;SDS011;63319;46.046;17.802;2023-04-24T04:31:23;13.00;;;5.90;;
74791;SDS011;63319;46.046;17.802;2023-04-24T04:34:27;8.50;;;4.67;;
74791;SDS011;63319;46.046;17.802;2023-04-24T04:37:34;10.00;;;5.40;;
74791;SDS011;63319;46.046;17.802;2023-04-24T04:41:17;12.00;;;5.53;;
74791;SDS011;63319;46.046;17.802;2023-04-24T04:44:22;9.55;;;5.00;;
74791;SDS011;63319;46.046;17.802;2023-04-24T04:47:26;10.05;;;5.50;;
74791;SDS011;63319;46.046;17.802;2023-04-24T04:50:37;9.33;;;5.30;;
74791;SDS011;63319;46.046;17.802;2023-04-24T04:53:43;8.32;;;4.47;;
74791;SDS011;63319;46.046;17.802;2023-04-24T04:56:46;8.13;;;4.63;;
74791;SDS011;63319;46.046;17.802;2023-04-24T04:59:50;9.27;;;4.75;;
74791;SDS011;63319;46.046;17.802;2023-04-24T05:03:05;9.40;;;5.22;;
74791;SDS011;63319;46.046;17.802;2023-04-24T05:06:25;9.13;;;4.50;;
74791;SDS011;63319;46.046;17.802;2023-04-24T05:09:29;9.60;;;5.13;;
74791;SDS011;63319;46.046;17.802;2023-04-24T05:12:37;8.45;;;5.32;;
74791;SDS011;63319;46.046;17.802;2023-04-24T05:15:40;9.23;;;5.40;;
74791;SDS011;63319;46.046;17.802;2023-04-24T05:18:43;9.30;;;5.07;;
74791;SDS011;63319;46.046;17.802;2023-04-24T05:21:49;8.87;;;4.97;;
74791;SDS011;63319;46.046;17.802;2023-04-24T05:24:52;8.38;;;4.70;;
74791;SDS011;63319;46.046;17.802;2023-04-24T05:28:14;9.60;;;5.28;;
74791;SDS011;63319;46.046;17.802;2023-04-24T05:31:21;10.63;;;5.32;;
74791;SDS011;63319;46.046;17.802;2023-04-24T05:34:24;10.07;;;5.30;;
74791;SDS011;63319;46.046;17.802;2023-04-24T05:37:30;9.90;;;4.97;;
74791;SDS011;63319;46.046;17.802;2023-04-24T05:40:33;9.18;;;4.85;;
74791;SDS011;63319;46.046;17.802;2023-04-24T05:43:36;9.63;;;5.10;;
74791;SDS011;63319;46.046;17.802;2023-04-24T05:46:39;9.27;;;4.90;;
74791;SDS011;63319;46.046;17.802;2023-04-24T05:49:44;12.70;;;5.03;;
74791;SDS011;63319;46.046;17.802;2023-04-24T05:52:47;7.47;;;3.97;;
74791;SDS011;63319;46.046;17.802;2023-04-24T05:56:01;9.07;;;5.32;;
74791;SDS011;63319;46.046;17.802;2023-04-24T05:59:05;10.82;;;5.25;;
74791;SDS011;63319;46.046;17.802;2023-04-24T06:02:08;9.15;;;5.00;;
74791;SDS011;63319;46.046;17.802;2023-04-24T06:05:11;9.32;;;4.82;;
74791;SDS011;63319;46.046;17.802;2023-04-24T06:08:14;7.97;;;4.47;;
74791;SDS011;63319;46.046;17.802;2023-04-24T06:11:18;9.18;;;4.90;;
74791;SDS011;63319;46.046;17.802;2023-04-24T06:14:22;10.23;;;5.22;;
74791;SDS011;63319;46.046;17.802;2023-04-24T06:17:43;10.75;;;4.70;;
74791;SDS011;63319;46.046;17.802;2023-04-24T06:20:49;10.25;;;5.20;;
74791;SDS011;63319;46.046;17.802;2023-04-24T06:23:52;10.47;;;5.00;;
74791;SDS011;63319;46.046;17.802;2023-04-24T06:26:54;17.90;;;5.00;;
74791;SDS011;63319;46.046;17.802;2023-04-24T06:30:02;8.90;;;4.38;;
74791;SDS011;63319;46.046;17.802;2023-04-24T06:33:05;9.30;;;4.85;;
74791;SDS011;63319;46.046;17.802;2023-04-24T06:36:22;11.68;;;5.38;;
74791;SDS011;63319;46.046;17.802;2023-04-24T06:39:33;11.97;;;5.00;;
74791;SDS011;63319;46.046;17.802;2023-04-24T06:42:36;11.95;;;4.50;;
74791;SDS011;63319;46.046;17.802;2023-04-24T06:45:41;11.60;;;5.10;;
74791;SDS011;63319;46.046;17.802;2023-04-24T06:48:45;9.18;;;4.55;;
74791;SDS011;63319;46.046;17.802;2023-04-24T06:51:48;8.77;;;4.57;;
74791;SDS011;63319;46.046;17.802;2023-04-24T06:54:51;11.30;;;4.17;;
74791;SDS011;63319;46.046;17.802;2023-04-24T06:57:53;9.15;;;4.47;;
74791;SDS011;63319;46.046;17.802;2023-04-24T07:00:57;8.68;;;4.72;;
74791;SDS011;63319;46.046;17.802;2023-04-24T07:04:00;13.93;;;4.75;;
74791;SDS011;63319;46.046;17.802;2023-04-24T07:07:03;8.68;;;4.38;;
74791;SDS011;63319;46.046;17.802;2023-04-24T07:10:08;9.90;;;4.33;;
74791;SDS011;63319;46.046;17.802;2023-04-24T07:13:11;8.43;;;4.05;;
74791;SDS011;63319;46.046;17.802;2023-04-24T07:16:14;10.35;;;4.60;;
74791;SDS011;63319;46.046;17.802;2023-04-24T07:19:17;10.73;;;4.50;;
74791;SDS011;63319;46.046;17.802;2023-04-24T07:22:20;8.93;;;4.95;;
74791;SDS011;63319;46.046;17.802;2023-04-24T07:25:23;10.73;;;4.50;;
74791;SDS011;63319;46.046;17.802;2023-04-24T07:28:26;8.85;;;4.32;;
74791;SDS011;63319;46.046;17.802;2023-04-24T07:31:29;9.27;;;4.25;;
74791;SDS011;63319;46.046;17.802;2023-04-24T07:34:33;10.15;;;4.47;;
74791;SDS011;63319;46.046;17.802;2023-04-24T07:37:36;11.15;;;4.18;;
74791;SDS011;63319;46.046;17.802;2023-04-24T07:40:39;8.87;;;4.30;;
74791;SDS011;63319;46.046;17.802;2023-04-24T07:43:42;23.73;;;4.70;;
74791;SDS011;63319;46.046;17.802;2023-04-24T07:46:47;9.15;;;4.57;;
74791;SDS011;63319;46.046;17.802;2023-04-24T07:49:50;11.55;;;4.75;;
74791;SDS011;63319;46.046;17.802;2023-04-24T07:52:52;9.27;;;4.97;;
74791;SDS011;63319;46.046;17.802;2023-04-24T07:55:56;9.53;;;4.50;;
74791;SDS011;63319;46.046;17.802;2023-04-24T07:59:02;11.52;;;4.85;;
74791;SDS011;63319;46.046;17.802;2023-04-24T08:02:05;12.98;;;4.53;;
74791;SDS011;63319;46.046;17.802;2023-04-24T08:05:08;9.07;;;4.68;;
74791;SDS011;63319;46.046;17.802;2023-04-24T08:08:21;9.60;;;4.35;;
74791;SDS011;63319;46.046;17.802;2023-04-24T08:11:25;7.57;;;3.67;;
74791;SDS011;63319;46.046;17.802;2023-04-24T08:14:28;8.23;;;4.13;;
74791;SDS011;63319;46.046;17.802;2023-04-24T08:17:31;7.97;;;4.30;;
74791;SDS011;63319;46.046;17.802;2023-04-24T08:20:34;11.63;;;4.28;;
74791;SDS011;63319;46.046;17.802;2023-04-24T08:23:39;7.60;;;4.05;;
74791;SDS011;63319;46.046;17.802;2023-04-24T08:26:42;8.03;;;4.33;;
74791;SDS011;63319;46.046;17.802;2023-04-24T08:29:45;8.20;;;3.53;;
74791;SDS011;63319;46.046;17.802;2023-04-24T08:32:48;8.05;;;4.28;;
74791;SDS011;63319;46.046;17.802;2023-04-24T08:35:51;13.13;;;4.15;;
74791;SDS011;63319;46.046;17.802;2023-04-24T08:38:54;10.15;;;3.40;;
74791;SDS011;63319;46.046;17.802;2023-04-24T08:41:57;7.40;;;3.53;;
74791;SDS011;63319;46.046;17.802;2023-04-24T08:45:07;6.13;;;3.47;;
74791;SDS011;63319;46.046;17.802;2023-04-24T08:48:12;7.18;;;3.85;;
74791;SDS011;63319;46.046;17.802;2023-04-24T08:51:31;12.95;;;3.55;;
74791;SDS011;63319;46.046;17.802;2023-04-24T08:54:35;8.45;;;3.22;;
74791;SDS011;63319;46.046;17.802;2023-04-24T08:57:39;10.00;;;3.13;;
74791;SDS011;63319;46.046;17.802;2023-04-24T09:00:43;12.50;;;3.90;;
74791;SDS011;63319;46.046;17.802;2023-04-24T09:03:49;11.65;;;4.30;;
74791;SDS011;63319;46.046;17.802;2023-04-24T09:06:55;9.52;;;3.47;;
74791;SDS011;63319;46.046;17.802;2023-04-24T09:09:59;10.00;;;3.70;;
74791;SDS011;63319;46.046;17.802;2023-04-24T09:13:03;10.43;;;3.67;;
74791;SDS011;63319;46.046;17.802;2023-04-24T09:16:07;13.40;;;3.88;;
74791;SDS011;63319;46.046;17.802;2023-04-24T09:19:10;12.40;;;4.20;;
74791;SDS011;63319;46.046;17.802;2023-04-24T09:22:13;12.02;;;3.70;;
74791;SDS011;63319;46.046;17.802;2023-04-24T09:25:17;9.55;;;3.72;;
74791;SDS011;63319;46.046;17.802;2023-04-24T09:28:25;10.57;;;4.47;;
74791;SDS011;63319;46.046;17.802;2023-04-24T09:31:29;8.48;;;3.28;;
74791;SDS011;63319;46.046;17.802;2023-04-24T09:34:32;9.75;;;3.70;;
74791;SDS011;63319;46.046;17.802;2023-04-24T09:37:38;9.73;;;3.58;;
74791;SDS011;63319;46.046;17.802;2023-04-24T09:40:44;11.00;;;4.03;;
74791;SDS011;63319;46.046;17.802;2023-04-24T09:43:47;9.53;;;3.20;;
74791;SDS011;63319;46.046;17.802;2023-04-24T09:46:53;9.18;;;3.15;;
74791;SDS011;63319;46.046;17.802;2023-04-24T09:50:01;9.77;;;3.50;;
74791;SDS011;63319;46.046;17.802;2023-04-24T09:53:13;10.68;;;3.47;;
74791;SDS011;63319;46.046;17.802;2023-04-24T09:56:16;9.82;;;3.47;;
74791;SDS011;63319;46.046;17.802;2023-04-24T09:59:19;10.33;;;3.00;;
74791;SDS011;63319;46.046;17.802;2023-04-24T10:02:23;10.40;;;3.30;;
74791;SDS011;63319;46.046;17.802;2023-04-24T10:05:36;8.63;;;3.17;;
74791;SDS011;63319;46.046;17.802;2023-04-24T10:08:39;7.72;;;3.22;;
74791;SDS011;63319;46.046;17.802;2023-04-24T10:11:44;8.10;;;3.28;;
74791;SDS011;63319;46.046;17.802;2023-04-24T10:14:48;7.33;;;3.03;;
74791;SDS011;63319;46.046;17.802;2023-04-24T10:17:52;7.70;;;3.03;;
74791;SDS011;63319;46.046;17.802;2023-04-24T10:20:55;8.48;;;3.17;;
74791;SDS011;63319;46.046;17.802;2023-04-24T10:23:59;7.25;;;2.80;;
74791;SDS011;63319;46.046;17.802;2023-04-24T10:27:05;9.30;;;3.38;;
74791;SDS011;63319;46.046;17.802;2023-04-24T10:30:11;7.17;;;2.63;;
74791;SDS011;63319;46.046;17.802;2023-04-24T10:33:15;6.97;;;2.78;;
74791;SDS011;63319;46.046;17.802;2023-04-24T10:36:19;7.40;;;2.80;;
74791;SDS011;63319;46.046;17.802;2023-04-24T10:39:25;7.05;;;2.30;;
74791;SDS011;63319;46.046;17.802;2023-04-24T10:42:29;6.95;;;2.40;;
74791;SDS011;63319;46.046;17.802;2023-04-24T10:45:32;6.10;;;2.43;;
74791;SDS011;63319;46.046;17.802;2023-04-24T10:48:35;5.93;;;2.30;;
74791;SDS011;63319;46.046;17.802;2023-04-24T10:51:50;11.18;;;2.63;;
74791;SDS011;63319;46.046;17.802;2023-04-24T10:54:55;6.95;;;2.17;;
74791;SDS011;63319;46.046;17.802;2023-04-24T10:58:04;6.50;;;2.45;;
74791;SDS011;63319;46.046;17.802;2023-04-24T11:01:07;5.90;;;2.23;;
74791;SDS011;63319;46.046;17.802;2023-04-24T11:04:13;4.63;;;1.92;;
74791;SDS011;63319;46.046;17.802;2023-04-24T11:07:16;7.07;;;2.60;;
74791;SDS011;63319;46.046;17.802;2023-04-24T11:10:28;5.22;;;2.22;;
74791;SDS011;63319;46.046;17.802;2023-04-24T11:16:58;7.07;;;2.37;;
74791;SDS011;63319;46.046;17.802;2023-04-24T11:20:07;5.30;;;2.13;;
74791;SDS011;63319;46.046;17.802;2023-04-24T11:23:28;6.07;;;2.03;;
74791;SDS011;63319;46.046;17.802;2023-04-24T11:26:39;5.88;;;2.15;;
74791;SDS011;63319;46.046;17.802;2023-04-24T11:33:02;5.77;;;2.17;;
74791;SDS011;63319;46.046;17.802;2023-04-24T11:36:08;6.88;;;2.35;;
74791;SDS011;63319;46.046;17.802;2023-04-24T11:39:11;6.35;;;2.25;;
74791;SDS011;63319;46.046;17.802;2023-04-24T11:42:15;6.70;;;1.98;;
74791;SDS011;63319;46.046;17.802;2023-04-24T11:45:22;7.22;;;2.60;;
74791;SDS011;63319;46.046;17.802;2023-04-24T11:48:34;4.80;;;2.20;;
74791;SDS011;63319;46.046;17.802;2023-04-24T11:51:40;7.28;;;2.00;;
74791;SDS011;63319;46.046;17.802;2023-04-24T11:54:56;6.18;;;1.98;;
74791;SDS011;63319;46.046;17.802;2023-04-24T11:58:00;7.22;;;2.30;;
74791;SDS011;63319;46.046;17.802;2023-04-24T12:01:04;6.15;;;2.45;;
74791;SDS011;63319;46.046;17.802;2023-04-24T12:04:07;8.07;;;1.60;;
74791;SDS011;63319;46.046;17.802;2023-04-24T12:07:19;6.15;;;2.13;;
74791;SDS011;63319;46.046;17.802;2023-04-24T12:10:32;5.10;;;2.05;;
74791;SDS011;63319;46.046;17.802;2023-04-24T12:13:39;5.55;;;1.88;;
74791;SDS011;63319;46.046;17.802;2023-04-24T12:16:52;6.20;;;2.42;;
74791;SDS011;63319;46.046;17.802;2023-04-24T12:19:57;6.20;;;2.10;;
74791;SDS011;63319;46.046;17.802;2023-04-24T12:23:02;7.25;;;2.15;;
74791;SDS011;63319;46.046;17.802;2023-04-24T12:26:05;6.05;;;2.50;;
74791;SDS011;63319;46.046;17.802;2023-04-24T12:29:08;5.05;;;2.10;;
74791;SDS011;63319;46.046;17.802;2023-04-24T12:32:17;7.93;;;2.63;;
74791;SDS011;63319;46.046;17.802;2023-04-24T12:35:24;6.00;;;2.23;;
74791;SDS011;63319;46.046;17.802;2023-04-24T12:38:29;7.28;;;2.00;;
74791;SDS011;63319;46.046;17.802;2023-04-24T12:41:33;6.80;;;2.40;;
74791;SDS011;63319;46.046;17.802;2023-04-24T12:44:36;7.25;;;2.30;;
74791;SDS011;63319;46.046;17.802;2023-04-24T12:47:39;4.03;;;2.13;;
74791;SDS011;63319;46.046;17.802;2023-04-24T12:50:43;6.13;;;1.97;;
74791;SDS011;63319;46.046;17.802;2023-04-24T12:53:48;4.78;;;2.30;;
74791;SDS011;63319;46.046;17.802;2023-04-24T12:56:51;5.22;;;2.33;;
74791;SDS011;63319;46.046;17.802;2023-04-24T12:59:55;8.90;;;2.30;;
74791;SDS011;63319;46.046;17.802;2023-04-24T13:02:59;5.50;;;2.03;;
74791;SDS011;63319;46.046;17.802;2023-04-24T13:06:03;5.83;;;2.50;;
74791;SDS011;63319;46.046;17.802;2023-04-24T13:09:06;4.65;;;2.22;;
74791;SDS011;63319;46.046;17.802;2023-04-24T13:12:09;7.90;;;2.40;;
74791;SDS011;63319;46.046;17.802;2023-04-24T13:15:13;4.53;;;2.00;;
74791;SDS011;63319;46.046;17.802;2023-04-24T13:18:16;5.90;;;2.40;;
74791;SDS011;63319;46.046;17.802;2023-04-24T13:21:18;6.70;;;2.50;;
74791;SDS011;63319;46.046;17.802;2023-04-24T13:24:22;6.13;;;2.38;;
74791;SDS011;63319;46.046;17.802;2023-04-24T13:27:28;10.10;;;2.72;;
74791;SDS011;63319;46.046;17.802;2023-04-24T13:30:31;9.65;;;2.83;;
74791;SDS011;63319;46.046;17.802;2023-04-24T13:33:34;9.40;;;2.38;;
74791;SDS011;63319;46.046;17.802;2023-04-24T13:36:37;8.77;;;3.20;;
74791;SDS011;63319;46.046;17.802;2023-04-24T13:39:40;10.27;;;2.72;;
74791;SDS011;63319;46.046;17.802;2023-04-24T13:42:43;10.30;;;2.72;;
74791;SDS011;63319;46.046;17.802;2023-04-24T13:45:46;11.35;;;2.78;;
74791;SDS011;63319;46.046;17.802;2023-04-24T13:48:51;6.55;;;2.30;;
74791;SDS011;63319;46.046;17.802;2023-04-24T13:51:54;11.07;;;2.90;;
74791;SDS011;63319;46.046;17.802;2023-04-24T13:54:58;9.60;;;2.63;;
74791;SDS011;63319;46.046;17.802;2023-04-24T13:58:01;8.98;;;3.22;;
74791;SDS011;63319;46.046;17.802;2023-04-24T14:01:04;7.78;;;2.13;;
74791;SDS011;63319;46.046;17.802;2023-04-24T14:04:07;10.18;;;2.38;;
74791;SDS011;63319;46.046;17.802;2023-04-24T14:07:10;9.07;;;2.40;;
74791;SDS011;63319;46.046;17.802;2023-04-24T14:10:13;6.28;;;2.58;;
74791;SDS011;63319;46.046;17.802;2023-04-24T14:13:16;6.55;;;2.47;;
74791;SDS011;63319;46.046;17.802;2023-04-24T14:16:19;10.23;;;2.83;;
74791;SDS011;63319;46.046;17.802;2023-04-24T14:19:22;8.20;;;3.00;;
74791;SDS011;63319;46.046;17.802;2023-04-24T14:22:26;6.23;;;2.20;;
74791;SDS011;63319;46.046;17.802;2023-04-24T14:25:28;6.78;;;2.25;;
74791;SDS011;63319;46.046;17.802;2023-04-24T14:28:32;7.22;;;2.80;;
74791;SDS011;63319;46.046;17.802;2023-04-24T14:31:35;7.15;;;2.42;;
74791;SDS011;63319;46.046;17.802;2023-04-24T14:34:38;8.60;;;2.50;;
74791;SDS011;63319;46.046;17.802;2023-04-24T14:37:40;8.07;;;2.00;;
74791;SDS011;63319;46.046;17.802;2023-04-24T14:40:44;6.30;;;2.65;;
74791;SDS011;63319;46.046;17.802;2023-04-24T14:44:07;6.65;;;2.22;;
74791;SDS011;63319;46.046;17.802;2023-04-24T14:47:09;6.60;;;2.28;;
74791;SDS011;63319;46.046;17.802;2023-04-24T14:50:19;7.47;;;2.40;;
74791;SDS011;63319;46.046;17.802;2023-04-24T14:53:32;7.93;;;2.10;;
74791;SDS011;63319;46.046;17.802;2023-04-24T14:56:36;5.82;;;2.38;;
74791;SDS011;63319;46.046;17.802;2023-04-24T14:59:39;7.20;;;2.60;;
74791;SDS011;63319;46.046;17.802;2023-04-24T15:02:42;5.30;;;2.20;;
74791;SDS011;63319;46.046;17.802;2023-04-24T15:05:47;5.65;;;2.10;;
74791;SDS011;63319;46.046;17.802;2023-04-24T15:08:50;8.70;;;2.40;;
74791;SDS011;63319;46.046;17.802;2023-04-24T15:11:53;5.53;;;2.22;;
74791;SDS011;63319;46.046;17.802;2023-04-24T15:14:57;11.38;;;2.30;;
74791;SDS011;63319;46.046;17.802;2023-04-24T15:18:04;7.15;;;2.20;;
74791;SDS011;63319;46.046;17.802;2023-04-24T15:21:07;7.15;;;2.80;;
74791;SDS011;63319;46.046;17.802;2023-04-24T15:24:10;5.67;;;2.13;;
74791;SDS011;63319;46.046;17.802;2023-04-24T15:27:17;8.32;;;2.65;;
74791;SDS011;63319;46.046;17.802;2023-04-24T15:30:20;6.40;;;2.65;;
74791;SDS011;63319;46.046;17.802;2023-04-24T15:33:23;6.93;;;2.67;;
74791;SDS011;63319;46.046;17.802;2023-04-24T15:36:28;5.55;;;2.30;;
74791;SDS011;63319;46.046;17.802;2023-04-24T15:39:30;6.47;;;2.40;;
74791;SDS011;63319;46.046;17.802;2023-04-24T15:42:34;6.35;;;2.25;;
74791;SDS011;63319;46.046;17.802;2023-04-24T15:45:37;5.95;;;2.30;;
74791;SDS011;63319;46.046;17.802;2023-04-24T15:48:41;6.15;;;2.40;;
74791;SDS011;63319;46.046;17.802;2023-04-24T15:51:44;5.60;;;2.05;;
74791;SDS011;63319;46.046;17.802;2023-04-24T15:54:47;3.83;;;2.07;;
74791;SDS011;63319;46.046;17.802;2023-04-24T15:57:54;4.95;;;2.22;;
74791;SDS011;63319;46.046;17.802;2023-04-24T16:01:02;5.93;;;2.00;;
74791;SDS011;63319;46.046;17.802;2023-04-24T16:04:05;4.43;;;2.10;;
74791;SDS011;63319;46.046;17.802;2023-04-24T16:07:09;6.05;;;2.42;;
74791;SDS011;63319;46.046;17.802;2023-04-24T16:10:11;5.77;;;2.27;;
74791;SDS011;63319;46.046;17.802;2023-04-24T16:13:14;5.78;;;2.10;;
74791;SDS011;63319;46.046;17.802;2023-04-24T16:16:19;7.07;;;2.65;;
74791;SDS011;63319;46.046;17.802;2023-04-24T16:19:22;4.80;;;1.95;;
74791;SDS011;63319;46.046;17.802;2023-04-24T16:22:26;6.30;;;2.40;;
74791;SDS011;63319;46.046;17.802;2023-04-24T16:25:29;6.70;;;2.40;;
74791;SDS011;63319;46.046;17.802;2023-04-24T16:28:32;6.47;;;2.47;;
74791;SDS011;63319;46.046;17.802;2023-04-24T16:31:35;5.38;;;2.40;;
74791;SDS011;63319;46.046;17.802;2023-04-24T16:34:38;3.83;;;2.10;;
74791;SDS011;63319;46.046;17.802;2023-04-24T16:37:40;4.70;;;2.30;;
74791;SDS011;63319;46.046;17.802;2023-04-24T16:40:43;4.47;;;2.10;;
74791;SDS011;63319;46.046;17.802;2023-04-24T16:43:46;4.65;;;2.22;;
74791;SDS011;63319;46.046;17.802;2023-04-24T16:46:49;4.55;;;2.22;;
74791;SDS011;63319;46.046;17.802;2023-04-24T16:49:53;6.72;;;2.42;;
74791;SDS011;63319;46.046;17.802;2023-04-24T16:52:56;5.05;;;2.47;;
74791;SDS011;63319;46.046;17.802;2023-04-24T16:55:59;5.70;;;2.50;;
74791;SDS011;63319;46.046;17.802;2023-04-24T16:59:02;5.13;;;2.30;;
74791;SDS011;63319;46.046;17.802;2023-04-24T17:02:05;4.85;;;2.13;;
74791;SDS011;63319;46.046;17.802;2023-04-24T17:05:09;4.57;;;2.00;;
74791;SDS011;63319;46.046;17.802;2023-04-24T17:08:12;5.45;;;2.10;;
74791;SDS011;63319;46.046;17.802;2023-04-24T17:11:15;5.20;;;2.00;;
74791;SDS011;63319;46.046;17.802;2023-04-24T17:14:18;5.65;;;2.45;;
74791;SDS011;63319;46.046;17.802;2023-04-24T17:17:22;6.20;;;2.45;;
74791;SDS011;63319;46.046;17.802;2023-04-24T17:20:27;7.00;;;2.30;;
74791;SDS011;63319;46.046;17.802;2023-04-24T17:23:33;4.20;;;2.25;;
74791;SDS011;63319;46.046;17.802;2023-04-24T17:26:36;5.37;;;2.10;;
74791;SDS011;63319;46.046;17.802;2023-04-24T17:29:54;5.03;;;2.30;;
74791;SDS011;63319;46.046;17.802;2023-04-24T17:33:24;3.58;;;1.80;;
74791;SDS011;63319;46.046;17.802;2023-04-24T17:36:38;5.78;;;2.03;;
74791;SDS011;63319;46.046;17.802;2023-04-24T17:39:42;4.68;;;2.13;;
74791;SDS011;63319;46.046;17.802;2023-04-24T17:42:46;5.63;;;2.20;;
74791;SDS011;63319;46.046;17.802;2023-04-24T17:45:52;4.22;;;2.22;;
74791;SDS011;63319;46.046;17.802;2023-04-24T17:48:58;4.65;;;2.17;;
74791;SDS011;63319;46.046;17.802;2023-04-24T17:52:10;5.25;;;2.15;;
74791;SDS011;63319;46.046;17.802;2023-04-24T17:55:15;4.60;;;2.15;;
74791;SDS011;63319;46.046;17.802;2023-04-24T17:58:19;5.93;;;2.53;;
74791;SDS011;63319;46.046;17.802;2023-04-24T18:01:23;4.10;;;2.17;;
74791;SDS011;63319;46.046;17.802;2023-04-24T18:04:26;5.47;;;2.33;;
74791;SDS011;63319;46.046;17.802;2023-04-24T18:07:29;5.35;;;2.40;;
74791;SDS011;63319;46.046;17.802;2023-04-24T18:10:32;4.93;;;2.10;;
74791;SDS011;63319;46.046;17.802;2023-04-24T18:13:39;4.17;;;2.00;;
74791;SDS011;63319;46.046;17.802;2023-04-24T18:16:45;5.80;;;2.10;;
74791;SDS011;63319;46.046;17.802;2023-04-24T18:19:49;5.05;;;2.13;;
74791;SDS011;63319;46.046;17.802;2023-04-24T18:22:53;5.18;;;2.20;;